sensor_id;sensor_type;location;lat;lon;timestamp;P1;durP1;ratioP1;P2;durP2;ratioP2
78563;SDS011;67856;47.754;19.088;2023-02-28T00:01:41;7.40;;;3.80;;
78563;SDS011;67856;47.754;19.088;2023-02-28T00:04:44;6.05;;;3.33;;
78563;SDS011;67856;47.754;19.088;2023-02-28T00:07:46;6.10;;;3.67;;
78563;SDS011;67856;47.754;19.088;2023-02-28T00:10:49;7.85;;;3.88;;
78563;SDS011;67856;47.754;19.088;2023-02-28T00:13:51;5.80;;;3.50;;
78563;SDS011;67856;47.754;19.088;2023-02-28T00:16:54;4.97;;;3.23;;
78563;SDS011;67856;47.754;19.088;2023-02-28T00:19:56;7.10;;;3.70;;
78563;SDS011;67856;47.754;19.088;2023-02-28T00:23:03;7.10;;;3.92;;
78563;SDS011;67856;47.754;19.088;2023-02-28T00:26:06;7.10;;;3.92;;
78563;SDS011;67856;47.754;19.088;2023-02-28T00:29:08;5.93;;;3.47;;
78563;SDS011;67856;47.754;19.088;2023-02-28T00:32:11;6.73;;;4.10;;
78563;SDS011;67856;47.754;19.088;2023-02-28T00:35:13;7.03;;;3.80;;
78563;SDS011;67856;47.754;19.088;2023-02-28T00:38:16;5.50;;;3.60;;
78563;SDS011;67856;47.754;19.088;2023-02-28T00:41:18;7.57;;;3.58;;
78563;SDS011;67856;47.754;19.088;2023-02-28T00:44:22;6.47;;;3.40;;
78563;SDS011;67856;47.754;19.088;2023-02-28T00:47:24;5.00;;;3.30;;
78563;SDS011;67856;47.754;19.088;2023-02-28T00:50:27;6.43;;;3.42;;
78563;SDS011;67856;47.754;19.088;2023-02-28T00:53:31;4.38;;;2.88;;
78563;SDS011;67856;47.754;19.088;2023-02-28T00:56:37;5.43;;;3.28;;
78563;SDS011;67856;47.754;19.088;2023-02-28T00:59:39;5.27;;;3.13;;
78563;SDS011;67856;47.754;19.088;2023-02-28T01:02:41;6.80;;;3.47;;
78563;SDS011;67856;47.754;19.088;2023-02-28T01:05:44;5.68;;;3.28;;
78563;SDS011;67856;47.754;19.088;2023-02-28T01:08:47;6.28;;;3.20;;
78563;SDS011;67856;47.754;19.088;2023-02-28T01:11:49;5.15;;;2.88;;
78563;SDS011;67856;47.754;19.088;2023-02-28T01:14:52;6.40;;;2.87;;
78563;SDS011;67856;47.754;19.088;2023-02-28T01:17:56;6.03;;;3.33;;
78563;SDS011;67856;47.754;19.088;2023-02-28T01:21:02;5.22;;;3.20;;
78563;SDS011;67856;47.754;19.088;2023-02-28T01:24:08;4.30;;;2.80;;
78563;SDS011;67856;47.754;19.088;2023-02-28T01:27:11;5.10;;;3.38;;
78563;SDS011;67856;47.754;19.088;2023-02-28T01:30:13;4.10;;;3.00;;
78563;SDS011;67856;47.754;19.088;2023-02-28T01:33:16;5.10;;;2.97;;
78563;SDS011;67856;47.754;19.088;2023-02-28T01:36:20;7.20;;;3.50;;
78563;SDS011;67856;47.754;19.088;2023-02-28T01:39:24;5.13;;;2.83;;
78563;SDS011;67856;47.754;19.088;2023-02-28T01:42:27;4.55;;;3.10;;
78563;SDS011;67856;47.754;19.088;2023-02-28T01:45:31;5.67;;;3.00;;
78563;SDS011;67856;47.754;19.088;2023-02-28T01:48:38;5.17;;;3.17;;
78563;SDS011;67856;47.754;19.088;2023-02-28T01:51:45;4.18;;;2.95;;
78563;SDS011;67856;47.754;19.088;2023-02-28T01:54:54;4.85;;;2.92;;
78563;SDS011;67856;47.754;19.088;2023-02-28T01:57:58;5.25;;;2.83;;
78563;SDS011;67856;47.754;19.088;2023-02-28T02:01:03;5.17;;;3.00;;
78563;SDS011;67856;47.754;19.088;2023-02-28T02:04:07;5.37;;;2.87;;
78563;SDS011;67856;47.754;19.088;2023-02-28T02:07:10;4.70;;;2.80;;
78563;SDS011;67856;47.754;19.088;2023-02-28T02:10:17;4.72;;;2.85;;
78563;SDS011;67856;47.754;19.088;2023-02-28T02:27:03;5.45;;;3.25;;
78563;SDS011;67856;47.754;19.088;2023-02-28T02:40:19;4.22;;;2.92;;
78563;SDS011;67856;47.754;19.088;2023-02-28T02:43:33;4.82;;;2.85;;
78563;SDS011;67856;47.754;19.088;2023-02-28T02:46:39;5.43;;;3.28;;
78563;SDS011;67856;47.754;19.088;2023-02-28T02:49:49;4.63;;;3.10;;
78563;SDS011;67856;47.754;19.088;2023-02-28T02:52:55;5.20;;;2.97;;
78563;SDS011;67856;47.754;19.088;2023-02-28T02:55:59;5.28;;;3.08;;
78563;SDS011;67856;47.754;19.088;2023-02-28T02:59:06;4.63;;;2.78;;
78563;SDS011;67856;47.754;19.088;2023-02-28T03:02:12;4.22;;;2.80;;
78563;SDS011;67856;47.754;19.088;2023-02-28T03:05:20;5.13;;;2.93;;
78563;SDS011;67856;47.754;19.088;2023-02-28T03:08:26;5.60;;;3.03;;
78563;SDS011;67856;47.754;19.088;2023-02-28T03:11:30;3.85;;;2.80;;
78563;SDS011;67856;47.754;19.088;2023-02-28T03:17:57;4.85;;;2.50;;
78563;SDS011;67856;47.754;19.088;2023-02-28T03:21:08;4.93;;;2.87;;
78563;SDS011;67856;47.754;19.088;2023-02-28T03:27:37;5.90;;;2.72;;
78563;SDS011;67856;47.754;19.088;2023-02-28T03:30:48;4.97;;;2.83;;
78563;SDS011;67856;47.754;19.088;2023-02-28T03:34:10;4.10;;;2.60;;
78563;SDS011;67856;47.754;19.088;2023-02-28T03:37:17;5.30;;;2.50;;
78563;SDS011;67856;47.754;19.088;2023-02-28T03:40:23;4.87;;;2.83;;
78563;SDS011;67856;47.754;19.088;2023-02-28T03:43:29;4.55;;;2.65;;
78563;SDS011;67856;47.754;19.088;2023-02-28T03:46:34;4.60;;;2.65;;
78563;SDS011;67856;47.754;19.088;2023-02-28T03:49:40;5.85;;;2.72;;
78563;SDS011;67856;47.754;19.088;2023-02-28T03:52:50;5.03;;;3.00;;
78563;SDS011;67856;47.754;19.088;2023-02-28T03:56:05;4.23;;;2.77;;
78563;SDS011;67856;47.754;19.088;2023-02-28T03:59:22;4.93;;;2.90;;
78563;SDS011;67856;47.754;19.088;2023-02-28T04:02:28;4.20;;;2.80;;
78563;SDS011;67856;47.754;19.088;2023-02-28T04:05:31;5.32;;;2.60;;
78563;SDS011;67856;47.754;19.088;2023-02-28T04:08:34;4.30;;;2.47;;
78563;SDS011;67856;47.754;19.088;2023-02-28T04:11:37;4.83;;;2.60;;
78563;SDS011;67856;47.754;19.088;2023-02-28T04:14:40;4.22;;;2.55;;
78563;SDS011;67856;47.754;19.088;2023-02-28T04:17:43;3.90;;;2.33;;
78563;SDS011;67856;47.754;19.088;2023-02-28T04:20:45;3.97;;;2.35;;
78563;SDS011;67856;47.754;19.088;2023-02-28T04:23:48;4.63;;;2.40;;
78563;SDS011;67856;47.754;19.088;2023-02-28T04:26:51;3.33;;;2.20;;
78563;SDS011;67856;47.754;19.088;2023-02-28T04:29:54;4.30;;;2.40;;
78563;SDS011;67856;47.754;19.088;2023-02-28T04:32:57;4.28;;;2.60;;
78563;SDS011;67856;47.754;19.088;2023-02-28T04:36:00;4.32;;;2.13;;
78563;SDS011;67856;47.754;19.088;2023-02-28T04:39:04;3.53;;;2.50;;
78563;SDS011;67856;47.754;19.088;2023-02-28T04:42:07;4.60;;;2.40;;
78563;SDS011;67856;47.754;19.088;2023-02-28T04:45:09;4.35;;;2.40;;
78563;SDS011;67856;47.754;19.088;2023-02-28T04:48:12;3.17;;;2.17;;
78563;SDS011;67856;47.754;19.088;2023-02-28T04:51:15;4.03;;;2.25;;
78563;SDS011;67856;47.754;19.088;2023-02-28T04:54:18;4.43;;;2.30;;
78563;SDS011;67856;47.754;19.088;2023-02-28T04:57:21;3.40;;;2.30;;
78563;SDS011;67856;47.754;19.088;2023-02-28T05:00:23;4.40;;;2.00;;
78563;SDS011;67856;47.754;19.088;2023-02-28T05:03:27;2.97;;;2.13;;
78563;SDS011;67856;47.754;19.088;2023-02-28T05:06:31;4.28;;;2.72;;
78563;SDS011;67856;47.754;19.088;2023-02-28T05:09:34;4.80;;;2.80;;
78563;SDS011;67856;47.754;19.088;2023-02-28T05:12:37;8.70;;;3.17;;
78563;SDS011;67856;47.754;19.088;2023-02-28T05:15:40;9.00;;;3.17;;
78563;SDS011;67856;47.754;19.088;2023-02-28T05:18:44;13.68;;;3.53;;
78563;SDS011;67856;47.754;19.088;2023-02-28T05:21:51;11.57;;;3.40;;
78563;SDS011;67856;47.754;19.088;2023-02-28T05:24:55;7.00;;;3.20;;
78563;SDS011;67856;47.754;19.088;2023-02-28T05:27:57;5.73;;;2.90;;
78563;SDS011;67856;47.754;19.088;2023-02-28T05:30:59;9.85;;;3.50;;
78563;SDS011;67856;47.754;19.088;2023-02-28T05:34:02;9.27;;;3.03;;
78563;SDS011;67856;47.754;19.088;2023-02-28T05:37:11;9.85;;;3.30;;
78563;SDS011;67856;47.754;19.088;2023-02-28T05:40:16;7.80;;;3.17;;
78563;SDS011;67856;47.754;19.088;2023-02-28T05:43:19;9.20;;;3.00;;
78563;SDS011;67856;47.754;19.088;2023-02-28T05:46:21;9.63;;;2.70;;
78563;SDS011;67856;47.754;19.088;2023-02-28T05:49:24;6.50;;;3.00;;
78563;SDS011;67856;47.754;19.088;2023-02-28T05:52:26;6.75;;;2.92;;
78563;SDS011;67856;47.754;19.088;2023-02-28T05:55:29;8.47;;;2.67;;
78563;SDS011;67856;47.754;19.088;2023-02-28T05:58:32;7.67;;;3.00;;
78563;SDS011;67856;47.754;19.088;2023-02-28T06:04:52;7.68;;;2.92;;
78563;SDS011;67856;47.754;19.088;2023-02-28T06:07:54;6.43;;;2.97;;
78563;SDS011;67856;47.754;19.088;2023-02-28T06:10:57;5.17;;;2.70;;
78563;SDS011;67856;47.754;19.088;2023-02-28T06:14:00;6.30;;;2.87;;
78563;SDS011;67856;47.754;19.088;2023-02-28T06:17:03;7.07;;;2.80;;
78563;SDS011;67856;47.754;19.088;2023-02-28T06:20:06;8.00;;;2.90;;
78563;SDS011;67856;47.754;19.088;2023-02-28T06:23:10;6.40;;;3.05;;
78563;SDS011;67856;47.754;19.088;2023-02-28T06:26:12;4.87;;;2.90;;
78563;SDS011;67856;47.754;19.088;2023-02-28T06:29:15;6.87;;;3.00;;
78563;SDS011;67856;47.754;19.088;2023-02-28T06:32:20;6.57;;;2.88;;
78563;SDS011;67856;47.754;19.088;2023-02-28T06:35:22;9.50;;;3.47;;
78563;SDS011;67856;47.754;19.088;2023-02-28T06:38:25;10.52;;;3.35;;
78563;SDS011;67856;47.754;19.088;2023-02-28T06:41:27;7.17;;;3.87;;
78563;SDS011;67856;47.754;19.088;2023-02-28T06:44:35;8.07;;;3.40;;
78563;SDS011;67856;47.754;19.088;2023-02-28T06:47:38;7.47;;;3.30;;
78563;SDS011;67856;47.754;19.088;2023-02-28T06:50:42;7.80;;;3.35;;
78563;SDS011;67856;47.754;19.088;2023-02-28T06:53:44;11.45;;;3.55;;
78563;SDS011;67856;47.754;19.088;2023-02-28T06:56:47;8.20;;;3.30;;
78563;SDS011;67856;47.754;19.088;2023-02-28T06:59:49;13.07;;;3.53;;
78563;SDS011;67856;47.754;19.088;2023-02-28T07:02:52;8.55;;;3.17;;
78563;SDS011;67856;47.754;19.088;2023-02-28T07:05:59;9.75;;;3.40;;
78563;SDS011;67856;47.754;19.088;2023-02-28T07:09:01;10.98;;;3.10;;
78563;SDS011;67856;47.754;19.088;2023-02-28T07:12:04;7.53;;;3.10;;
78563;SDS011;67856;47.754;19.088;2023-02-28T07:15:07;10.17;;;3.27;;
78563;SDS011;67856;47.754;19.088;2023-02-28T07:18:10;8.07;;;3.45;;
78563;SDS011;67856;47.754;19.088;2023-02-28T07:21:13;7.68;;;3.38;;
78563;SDS011;67856;47.754;19.088;2023-02-28T07:24:15;8.50;;;3.10;;
78563;SDS011;67856;47.754;19.088;2023-02-28T07:27:21;4.80;;;3.00;;
78563;SDS011;67856;47.754;19.088;2023-02-28T07:30:27;9.23;;;3.30;;
78563;SDS011;67856;47.754;19.088;2023-02-28T07:33:30;7.75;;;3.13;;
78563;SDS011;67856;47.754;19.088;2023-02-28T07:36:32;9.82;;;3.15;;
78563;SDS011;67856;47.754;19.088;2023-02-28T07:39:34;8.55;;;3.17;;
78563;SDS011;67856;47.754;19.088;2023-02-28T07:42:37;6.80;;;3.00;;
78563;SDS011;67856;47.754;19.088;2023-02-28T07:45:41;6.43;;;3.03;;
78563;SDS011;67856;47.754;19.088;2023-02-28T07:48:43;9.68;;;3.40;;
78563;SDS011;67856;47.754;19.088;2023-02-28T07:51:46;11.57;;;3.40;;
78563;SDS011;67856;47.754;19.088;2023-02-28T07:54:49;9.90;;;3.55;;
78563;SDS011;67856;47.754;19.088;2023-02-28T07:57:52;9.33;;;3.23;;
78563;SDS011;67856;47.754;19.088;2023-02-28T08:00:54;8.40;;;3.20;;
78563;SDS011;67856;47.754;19.088;2023-02-28T08:03:57;11.13;;;3.53;;
78563;SDS011;67856;47.754;19.088;2023-02-28T08:06:59;12.02;;;3.78;;
78563;SDS011;67856;47.754;19.088;2023-02-28T08:10:02;11.82;;;3.47;;
78563;SDS011;67856;47.754;19.088;2023-02-28T08:13:07;11.73;;;3.37;;
78563;SDS011;67856;47.754;19.088;2023-02-28T08:16:10;12.83;;;3.50;;
78563;SDS011;67856;47.754;19.088;2023-02-28T08:19:14;12.23;;;3.10;;
78563;SDS011;67856;47.754;19.088;2023-02-28T08:22:16;10.68;;;3.05;;
78563;SDS011;67856;47.754;19.088;2023-02-28T08:25:18;12.27;;;3.10;;
78563;SDS011;67856;47.754;19.088;2023-02-28T08:28:21;12.73;;;3.35;;
78563;SDS011;67856;47.754;19.088;2023-02-28T08:31:26;9.17;;;3.13;;
78563;SDS011;67856;47.754;19.088;2023-02-28T08:34:30;8.43;;;3.20;;
78563;SDS011;67856;47.754;19.088;2023-02-28T08:37:32;26.73;;;4.00;;
78563;SDS011;67856;47.754;19.088;2023-02-28T08:40:34;30.95;;;4.82;;
78563;SDS011;67856;47.754;19.088;2023-02-28T08:43:37;22.27;;;3.93;;
78563;SDS011;67856;47.754;19.088;2023-02-28T08:46:41;23.93;;;4.90;;
78563;SDS011;67856;47.754;19.088;2023-02-28T08:49:44;24.95;;;4.10;;
78563;SDS011;67856;47.754;19.088;2023-02-28T08:52:47;16.60;;;3.50;;
78563;SDS011;67856;47.754;19.088;2023-02-28T08:55:59;28.63;;;4.00;;
78563;SDS011;67856;47.754;19.088;2023-02-28T08:59:02;26.80;;;4.20;;
78563;SDS011;67856;47.754;19.088;2023-02-28T09:02:05;22.27;;;4.10;;
78563;SDS011;67856;47.754;19.088;2023-02-28T09:05:08;24.25;;;3.70;;
78563;SDS011;67856;47.754;19.088;2023-02-28T09:08:10;26.15;;;3.92;;
78563;SDS011;67856;47.754;19.088;2023-02-28T09:11:13;19.30;;;3.78;;
78563;SDS011;67856;47.754;19.088;2023-02-28T09:14:16;17.17;;;4.17;;
78563;SDS011;67856;47.754;19.088;2023-02-28T09:17:19;15.20;;;3.60;;
78563;SDS011;67856;47.754;19.088;2023-02-28T09:20:22;13.75;;;3.85;;
78563;SDS011;67856;47.754;19.088;2023-02-28T09:23:24;19.80;;;4.10;;
78563;SDS011;67856;47.754;19.088;2023-02-28T09:26:27;18.10;;;3.67;;
78563;SDS011;67856;47.754;19.088;2023-02-28T09:29:43;19.73;;;4.00;;
78563;SDS011;67856;47.754;19.088;2023-02-28T09:32:46;20.57;;;3.80;;
78563;SDS011;67856;47.754;19.088;2023-02-28T09:35:58;15.88;;;3.60;;
78563;SDS011;67856;47.754;19.088;2023-02-28T09:39:02;13.50;;;3.55;;
78563;SDS011;67856;47.754;19.088;2023-02-28T09:42:11;18.75;;;4.03;;
78563;SDS011;67856;47.754;19.088;2023-02-28T09:48:41;18.73;;;3.60;;
78563;SDS011;67856;47.754;19.088;2023-02-28T09:51:51;20.83;;;3.70;;
78563;SDS011;67856;47.754;19.088;2023-02-28T09:58:49;17.27;;;3.42;;
78563;SDS011;67856;47.754;19.088;2023-02-28T10:02:13;14.40;;;3.23;;
78563;SDS011;67856;47.754;19.088;2023-02-28T10:05:21;18.67;;;4.17;;
78563;SDS011;67856;47.754;19.088;2023-02-28T10:08:28;17.85;;;3.30;;
78563;SDS011;67856;47.754;19.088;2023-02-28T10:11:34;14.10;;;3.35;;
78563;SDS011;67856;47.754;19.088;2023-02-28T10:14:38;16.83;;;3.90;;
78563;SDS011;67856;47.754;19.088;2023-02-28T10:17:42;12.27;;;3.10;;
78563;SDS011;67856;47.754;19.088;2023-02-28T10:21:09;17.43;;;3.40;;
78563;SDS011;67856;47.754;19.088;2023-02-28T10:24:23;13.73;;;3.40;;
78563;SDS011;67856;47.754;19.088;2023-02-28T10:27:31;14.30;;;3.17;;
78563;SDS011;67856;47.754;19.088;2023-02-28T10:30:36;13.80;;;3.20;;
78563;SDS011;67856;47.754;19.088;2023-02-28T10:33:40;11.53;;;3.20;;
78563;SDS011;67856;47.754;19.088;2023-02-28T10:36:42;13.63;;;3.13;;
78563;SDS011;67856;47.754;19.088;2023-02-28T10:39:46;12.90;;;3.30;;
78563;SDS011;67856;47.754;19.088;2023-02-28T10:49:28;10.70;;;3.00;;
78563;SDS011;67856;47.754;19.088;2023-02-28T10:52:32;14.40;;;3.23;;
78563;SDS011;67856;47.754;19.088;2023-02-28T10:55:39;11.57;;;3.20;;
78563;SDS011;67856;47.754;19.088;2023-02-28T11:02:01;12.98;;;2.97;;
78563;SDS011;67856;47.754;19.088;2023-02-28T11:08:28;13.57;;;3.27;;
78563;SDS011;67856;47.754;19.088;2023-02-28T11:11:40;15.77;;;3.45;;
78563;SDS011;67856;47.754;19.088;2023-02-28T11:14:49;19.08;;;3.38;;
78563;SDS011;67856;47.754;19.088;2023-02-28T11:17:59;15.50;;;2.88;;
78563;SDS011;67856;47.754;19.088;2023-02-28T11:21:03;14.70;;;2.90;;
78563;SDS011;67856;47.754;19.088;2023-02-28T11:24:15;17.27;;;3.63;;
78563;SDS011;67856;47.754;19.088;2023-02-28T11:27:26;14.57;;;2.88;;
78563;SDS011;67856;47.754;19.088;2023-02-28T11:31:35;15.38;;;3.05;;
78563;SDS011;67856;47.754;19.088;2023-02-28T11:34:25;15.60;;;3.15;;
78563;SDS011;67856;47.754;19.088;2023-02-28T11:37:29;14.97;;;3.43;;
78563;SDS011;67856;47.754;19.088;2023-02-28T11:47:01;17.38;;;3.25;;
78563;SDS011;67856;47.754;19.088;2023-02-28T11:50:34;15.10;;;3.53;;
78563;SDS011;67856;47.754;19.088;2023-02-28T11:56:51;12.23;;;3.30;;
78563;SDS011;67856;47.754;19.088;2023-02-28T12:03:37;15.05;;;3.22;;
78563;SDS011;67856;47.754;19.088;2023-02-28T12:14:15;16.13;;;3.20;;
78563;SDS011;67856;47.754;19.088;2023-02-28T12:26:47;10.82;;;3.38;;
78563;SDS011;67856;47.754;19.088;2023-02-28T12:29:58;12.50;;;2.93;;
78563;SDS011;67856;47.754;19.088;2023-02-28T12:33:17;15.73;;;3.20;;
78563;SDS011;67856;47.754;19.088;2023-02-28T12:36:23;10.68;;;3.00;;
78563;SDS011;67856;47.754;19.088;2023-02-28T12:39:33;11.50;;;3.10;;
78563;SDS011;67856;47.754;19.088;2023-02-28T12:43:02;16.70;;;3.30;;
78563;SDS011;67856;47.754;19.088;2023-02-28T12:49:29;11.95;;;3.28;;
78563;SDS011;67856;47.754;19.088;2023-02-28T13:09:03;10.77;;;2.90;;
78563;SDS011;67856;47.754;19.088;2023-02-28T13:12:14;11.82;;;2.95;;
78563;SDS011;67856;47.754;19.088;2023-02-28T13:21:32;11.68;;;2.80;;
78563;SDS011;67856;47.754;19.088;2023-02-28T13:24:46;12.15;;;3.25;;
78563;SDS011;67856;47.754;19.088;2023-02-28T13:27:50;16.88;;;3.00;;
78563;SDS011;67856;47.754;19.088;2023-02-28T13:34:12;7.23;;;2.90;;
78563;SDS011;67856;47.754;19.088;2023-02-28T13:40:34;9.88;;;3.17;;
78563;SDS011;67856;47.754;19.088;2023-02-28T13:44:00;14.48;;;2.60;;
78563;SDS011;67856;47.754;19.088;2023-02-28T13:47:23;13.63;;;2.90;;
78563;SDS011;67856;47.754;19.088;2023-02-28T13:50:36;9.57;;;2.50;;
78563;SDS011;67856;47.754;19.088;2023-02-28T13:53:45;14.80;;;2.53;;
78563;SDS011;67856;47.754;19.088;2023-02-28T14:06:51;9.73;;;2.53;;
78563;SDS011;67856;47.754;19.088;2023-02-28T14:10:04;12.30;;;2.95;;
78563;SDS011;67856;47.754;19.088;2023-02-28T14:17:12;37.05;;;5.15;;
78563;SDS011;67856;47.754;19.088;2023-02-28T14:20:16;43.47;;;5.13;;
78563;SDS011;67856;47.754;19.088;2023-02-28T14:23:34;46.53;;;5.83;;
78563;SDS011;67856;47.754;19.088;2023-02-28T14:30:03;37.60;;;5.47;;
78563;SDS011;67856;47.754;19.088;2023-02-28T14:33:27;40.03;;;5.85;;
78563;SDS011;67856;47.754;19.088;2023-02-28T14:36:39;33.33;;;4.70;;
78563;SDS011;67856;47.754;19.088;2023-02-28T14:39:43;35.67;;;5.20;;
78563;SDS011;67856;47.754;19.088;2023-02-28T14:42:48;34.40;;;4.90;;
78563;SDS011;67856;47.754;19.088;2023-02-28T14:46:04;30.23;;;5.00;;
78563;SDS011;67856;47.754;19.088;2023-02-28T14:49:51;31.35;;;5.15;;
78563;SDS011;67856;47.754;19.088;2023-02-28T14:52:38;28.70;;;4.13;;
78563;SDS011;67856;47.754;19.088;2023-02-28T14:55:43;27.30;;;4.73;;
78563;SDS011;67856;47.754;19.088;2023-02-28T14:58:50;27.92;;;4.55;;
78563;SDS011;67856;47.754;19.088;2023-02-28T15:05:38;24.27;;;4.50;;
78563;SDS011;67856;47.754;19.088;2023-02-28T15:08:41;26.40;;;4.28;;
78563;SDS011;67856;47.754;19.088;2023-02-28T15:11:47;23.20;;;4.40;;
78563;SDS011;67856;47.754;19.088;2023-02-28T15:14:51;22.48;;;4.50;;
78563;SDS011;67856;47.754;19.088;2023-02-28T15:17:54;18.20;;;4.45;;
78563;SDS011;67856;47.754;19.088;2023-02-28T15:20:59;26.17;;;4.07;;
78563;SDS011;67856;47.754;19.088;2023-02-28T15:27:30;20.70;;;4.37;;
78563;SDS011;67856;47.754;19.088;2023-02-28T15:30:34;16.55;;;3.80;;
78563;SDS011;67856;47.754;19.088;2023-02-28T15:33:36;21.65;;;4.35;;
78563;SDS011;67856;47.754;19.088;2023-02-28T15:36:39;16.67;;;4.20;;
78563;SDS011;67856;47.754;19.088;2023-02-28T15:39:42;16.10;;;4.07;;
78563;SDS011;67856;47.754;19.088;2023-02-28T15:43:06;24.23;;;4.13;;
78563;SDS011;67856;47.754;19.088;2023-02-28T15:46:14;17.73;;;4.00;;
78563;SDS011;67856;47.754;19.088;2023-02-28T15:49:19;17.65;;;3.85;;
78563;SDS011;67856;47.754;19.088;2023-02-28T15:52:33;31.45;;;4.75;;
78563;SDS011;67856;47.754;19.088;2023-02-28T15:55:58;13.43;;;3.67;;
78563;SDS011;67856;47.754;19.088;2023-02-28T15:59:03;23.97;;;4.07;;
78563;SDS011;67856;47.754;19.088;2023-02-28T16:02:17;16.55;;;4.00;;
78563;SDS011;67856;47.754;19.088;2023-02-28T16:08:32;17.48;;;3.97;;
78563;SDS011;67856;47.754;19.088;2023-02-28T16:11:36;17.70;;;4.20;;
78563;SDS011;67856;47.754;19.088;2023-02-28T16:14:40;14.77;;;4.00;;
78563;SDS011;67856;47.754;19.088;2023-02-28T16:17:43;17.98;;;3.70;;
78563;SDS011;67856;47.754;19.088;2023-02-28T16:20:46;19.33;;;4.03;;
78563;SDS011;67856;47.754;19.088;2023-02-28T16:23:49;15.05;;;4.00;;
78563;SDS011;67856;47.754;19.088;2023-02-28T16:26:52;25.37;;;4.50;;
78563;SDS011;67856;47.754;19.088;2023-02-28T16:29:56;13.63;;;3.90;;
78563;SDS011;67856;47.754;19.088;2023-02-28T16:32:58;15.30;;;3.90;;
78563;SDS011;67856;47.754;19.088;2023-02-28T16:36:01;12.70;;;4.00;;
78563;SDS011;67856;47.754;19.088;2023-02-28T16:39:03;16.13;;;4.10;;
78563;SDS011;67856;47.754;19.088;2023-02-28T16:42:08;11.07;;;3.47;;
78563;SDS011;67856;47.754;19.088;2023-02-28T16:45:31;13.67;;;3.77;;
78563;SDS011;67856;47.754;19.088;2023-02-28T16:48:34;14.05;;;3.88;;
78563;SDS011;67856;47.754;19.088;2023-02-28T16:51:36;12.52;;;3.63;;
78563;SDS011;67856;47.754;19.088;2023-02-28T16:54:39;14.57;;;4.40;;
78563;SDS011;67856;47.754;19.088;2023-02-28T16:57:42;10.87;;;4.77;;
78563;SDS011;67856;47.754;19.088;2023-02-28T17:00:45;16.10;;;4.50;;
78563;SDS011;67856;47.754;19.088;2023-02-28T17:03:48;8.18;;;4.00;;
78563;SDS011;67856;47.754;19.088;2023-02-28T17:06:51;16.75;;;3.67;;
78563;SDS011;67856;47.754;19.088;2023-02-28T17:09:54;12.77;;;4.13;;
78563;SDS011;67856;47.754;19.088;2023-02-28T17:12:56;12.43;;;3.93;;
78563;SDS011;67856;47.754;19.088;2023-02-28T17:19:20;10.27;;;3.50;;
78563;SDS011;67856;47.754;19.088;2023-02-28T17:22:22;14.30;;;3.22;;
78563;SDS011;67856;47.754;19.088;2023-02-28T17:25:25;10.57;;;3.05;;
78563;SDS011;67856;47.754;19.088;2023-02-28T17:28:27;10.27;;;3.47;;
78563;SDS011;67856;47.754;19.088;2023-02-28T17:31:30;12.40;;;3.20;;
78563;SDS011;67856;47.754;19.088;2023-02-28T17:34:35;12.77;;;3.72;;
78563;SDS011;67856;47.754;19.088;2023-02-28T17:37:38;9.57;;;3.45;;
78563;SDS011;67856;47.754;19.088;2023-02-28T17:40:41;13.95;;;3.70;;
78563;SDS011;67856;47.754;19.088;2023-02-28T17:43:43;10.55;;;3.20;;
78563;SDS011;67856;47.754;19.088;2023-02-28T17:46:46;11.63;;;3.30;;
78563;SDS011;67856;47.754;19.088;2023-02-28T17:49:48;10.65;;;3.55;;
78563;SDS011;67856;47.754;19.088;2023-02-28T17:52:51;13.93;;;3.60;;
78563;SDS011;67856;47.754;19.088;2023-02-28T17:55:53;9.90;;;3.28;;
78563;SDS011;67856;47.754;19.088;2023-02-28T17:58:56;9.13;;;3.37;;
78563;SDS011;67856;47.754;19.088;2023-02-28T18:01:59;14.07;;;3.60;;
78563;SDS011;67856;47.754;19.088;2023-02-28T18:05:02;10.45;;;3.70;;
78563;SDS011;67856;47.754;19.088;2023-02-28T18:08:07;9.10;;;3.38;;
78563;SDS011;67856;47.754;19.088;2023-02-28T18:11:18;8.82;;;3.50;;
78563;SDS011;67856;47.754;19.088;2023-02-28T18:14:22;9.17;;;3.20;;
78563;SDS011;67856;47.754;19.088;2023-02-28T18:17:26;11.03;;;3.23;;
78563;SDS011;67856;47.754;19.088;2023-02-28T18:20:29;12.70;;;3.35;;
78563;SDS011;67856;47.754;19.088;2023-02-28T18:23:31;6.90;;;3.55;;
78563;SDS011;67856;47.754;19.088;2023-02-28T18:26:35;9.40;;;3.70;;
78563;SDS011;67856;47.754;19.088;2023-02-28T18:29:37;9.90;;;3.30;;
78563;SDS011;67856;47.754;19.088;2023-02-28T18:32:42;14.10;;;5.67;;
78563;SDS011;67856;47.754;19.088;2023-02-28T18:35:45;11.55;;;4.05;;
78563;SDS011;67856;47.754;19.088;2023-02-28T18:38:47;10.43;;;3.28;;
78563;SDS011;67856;47.754;19.088;2023-02-28T18:41:52;11.20;;;3.47;;
78563;SDS011;67856;47.754;19.088;2023-02-28T18:44:55;7.50;;;3.47;;
78563;SDS011;67856;47.754;19.088;2023-02-28T18:47:57;8.27;;;3.47;;
78563;SDS011;67856;47.754;19.088;2023-02-28T18:51:10;10.27;;;3.90;;
78563;SDS011;67856;47.754;19.088;2023-02-28T18:54:14;8.65;;;3.80;;
78563;SDS011;67856;47.754;19.088;2023-02-28T18:57:17;9.05;;;3.80;;
78563;SDS011;67856;47.754;19.088;2023-02-28T19:00:20;9.17;;;3.77;;
78563;SDS011;67856;47.754;19.088;2023-02-28T19:03:23;5.87;;;4.07;;
78563;SDS011;67856;47.754;19.088;2023-02-28T19:06:26;9.82;;;3.97;;
78563;SDS011;67856;47.754;19.088;2023-02-28T19:09:31;10.35;;;4.00;;
78563;SDS011;67856;47.754;19.088;2023-02-28T19:12:34;9.35;;;3.90;;
78563;SDS011;67856;47.754;19.088;2023-02-28T19:15:37;9.10;;;3.80;;
78563;SDS011;67856;47.754;19.088;2023-02-28T19:18:40;9.53;;;3.83;;
78563;SDS011;67856;47.754;19.088;2023-02-28T19:21:42;8.93;;;3.80;;
78563;SDS011;67856;47.754;19.088;2023-02-28T19:24:45;8.23;;;3.78;;
78563;SDS011;67856;47.754;19.088;2023-02-28T19:27:50;8.07;;;4.70;;
78563;SDS011;67856;47.754;19.088;2023-02-28T19:30:53;8.87;;;4.40;;
78563;SDS011;67856;47.754;19.088;2023-02-28T19:33:55;8.70;;;4.27;;
78563;SDS011;67856;47.754;19.088;2023-02-28T19:37:00;8.02;;;3.78;;
78563;SDS011;67856;47.754;19.088;2023-02-28T19:40:02;7.70;;;4.07;;
78563;SDS011;67856;47.754;19.088;2023-02-28T19:43:05;11.07;;;4.95;;
78563;SDS011;67856;47.754;19.088;2023-02-28T19:46:09;12.47;;;4.80;;
78563;SDS011;67856;47.754;19.088;2023-02-28T19:49:13;13.40;;;5.07;;
78563;SDS011;67856;47.754;19.088;2023-02-28T19:52:15;11.35;;;5.82;;
78563;SDS011;67856;47.754;19.088;2023-02-28T19:55:18;11.77;;;5.78;;
78563;SDS011;67856;47.754;19.088;2023-02-28T19:58:21;10.40;;;5.38;;
78563;SDS011;67856;47.754;19.088;2023-02-28T20:01:23;10.70;;;5.33;;
78563;SDS011;67856;47.754;19.088;2023-02-28T20:04:26;9.10;;;5.37;;
78563;SDS011;67856;47.754;19.088;2023-02-28T20:07:29;10.90;;;5.65;;
78563;SDS011;67856;47.754;19.088;2023-02-28T20:10:33;10.23;;;5.15;;
78563;SDS011;67856;47.754;19.088;2023-02-28T20:13:36;12.38;;;5.22;;
78563;SDS011;67856;47.754;19.088;2023-02-28T20:16:39;11.80;;;5.97;;
78563;SDS011;67856;47.754;19.088;2023-02-28T20:19:42;12.27;;;6.50;;
78563;SDS011;67856;47.754;19.088;2023-02-28T20:22:45;10.70;;;5.10;;
78563;SDS011;67856;47.754;19.088;2023-02-28T20:25:50;9.27;;;4.38;;
78563;SDS011;67856;47.754;19.088;2023-02-28T20:28:53;10.60;;;4.40;;
78563;SDS011;67856;47.754;19.088;2023-02-28T20:31:56;8.13;;;4.13;;
78563;SDS011;67856;47.754;19.088;2023-02-28T20:34:59;7.03;;;4.27;;
78563;SDS011;67856;47.754;19.088;2023-02-28T20:38:01;7.65;;;4.00;;
78563;SDS011;67856;47.754;19.088;2023-02-28T20:41:04;8.25;;;4.53;;